Time;durP1;ratioP1;P1;durP2;ratioP2;P2;SDS_P1;SDS_P2;PMS_P1;PMS_P2;Temp;Humidity;BMP_temperature;BMP_pressure;BME280_temperature;BME280_humidity;BME280_pressure;Samples;Min_cycle;Max_cycle;Signal;HPM_P1;HPM_P2
2021/08/07 00:02:04;;;;;;;;;;;;;;;27.24;43.50;99832.95;1747559;80;20223;-47
2021/08/07 00:04:30;;;;;;;;;;;;;;;27.22;43.53;99831.92;1750588;80;20213;-44
2021/08/07 00:06:56;;;;;;;;;;;;;;;27.23;43.55;99836.33;1752746;80;20488;-44
2021/08/07 00:09:22;;;;;;;;;;;;;;;27.24;43.57;99832.33;1757126;80;20231;-42
2021/08/07 00:11:48;;;;;;;;;;;;;;;27.25;43.62;99835.92;1749334;80;21130;-42
2021/08/07 00:14:14;;;;;;;;;;;;;;;27.25;43.65;99846.50;1749383;80;20468;-43
2021/08/07 00:16:40;;;;;;;;;;;;;;;27.25;43.68;99848.49;1742034;80;20156;-43
2021/08/07 00:19:06;;;;;;;;;;;;;;;27.26;43.70;99842.53;1742886;80;20892;-43
2021/08/07 00:21:32;;;;;;;;;;;;;;;27.28;43.73;99848.34;1738791;80;20298;-42
2021/08/07 00:23:58;;;;;;;;;;;;;;;27.28;43.76;99845.55;1743392;80;21051;-44
2021/08/07 00:26:24;;;;;;;;;;;;;;;27.27;43.79;99847.53;1744556;80;20214;-42
2021/08/07 00:28:50;;;;;;;;;;;;;;;27.28;43.82;99845.55;1745164;80;20226;-43
2021/08/07 00:31:16;;;;;;;;;;;;;;;27.28;43.83;99852.52;1741368;80;20252;-44
2021/08/07 00:33:42;;;;;;;;;;;;;;;27.28;43.86;99849.14;1740000;80;20907;-44
2021/08/07 00:36:08;;;;;;;;;;;;;;;27.28;43.91;99849.14;1743506;80;21050;-44
2021/08/07 00:38:34;;;;;;;;;;;;;;;27.28;43.92;99849.92;1745300;80;20201;-45
2021/08/07 00:41:01;;;;;;;;;;;;;;;27.30;43.94;99852.92;1743634;80;20246;-43
2021/08/07 00:43:27;;;;;;;;;;;;;;;27.29;43.98;99853.52;1740786;80;20250;-43
2021/08/07 00:45:53;;;;;;;;;;;;;;;27.30;43.99;99852.34;1742611;80;20234;-43
2021/08/07 00:48:18;;;;;;;;;;;;;;;27.30;44.01;99853.73;1713456;82;21256;-43
2021/08/07 00:50:48;;;;;;;;;;;;;;;27.30;44.05;99864.91;1708890;81;21572;-43
2021/08/07 00:53:13;;;;;;;;;;;;;;;27.31;44.05;99868.50;1715192;82;20205;-46
2021/08/07 00:55:40;;;;;;;;;;;;;;;27.30;43.97;99865.49;1680631;83;20239;-44
2021/08/07 00:58:06;;;;;;;;;;;;;;;27.30;43.90;99874.68;1713609;81;20906;-44
2021/08/07 01:00:32;;;;;;;;;;;;;;;27.30;43.88;99875.27;1714709;82;21226;-46
2021/08/07 01:03:20;;;;;;;;;;;;;;;27.30;43.88;99879.45;1704987;83;20214;-47
2021/08/07 01:06:08;;;;;;;;;;;;;;;27.30;43.95;99882.25;1615538;87;20213;-43
2021/08/07 01:08:37;;;;;;;;;;;;;;;27.30;44.03;99880.27;1733695;80;20210;-46
2021/08/07 01:11:12;;;;;;;;;;;;;;;27.31;44.07;99886.06;1748723;80;20314;-46
2021/08/07 01:13:47;;;;;;;;;;;;;;;27.31;44.11;99888.05;1740995;80;21105;-44
2021/08/07 01:16:25;;;;;;;;;;;;;;;27.30;44.14;99884.45;1760853;80;20518;-44
2021/08/07 01:18:51;;;;;;;;;;;;;;;27.31;44.18;99892.23;1769736;80;20192;-44
2021/08/07 01:21:18;;;;;;;;;;;;;;;27.30;44.21;99883.64;1757314;80;21210;-45
2021/08/07 01:23:50;;;;;;;;;;;;;;;27.30;44.27;99889.23;1763279;80;20238;-45
2021/08/07 01:26:20;;;;;;;;;;;;;;;27.31;44.31;99888.05;1765823;80;21335;-44
2021/08/07 01:28:46;;;;;;;;;;;;;;;27.31;44.33;99890.84;1757703;80;21590;-43
2021/08/07 01:31:14;;;;;;;;;;;;;;;27.31;44.39;99893.64;1720226;81;20180;-43
2021/08/07 01:33:42;;;;;;;;;;;;;;;27.32;44.42;99895.25;1713593;81;20475;-42
2021/08/07 01:36:08;;;;;;;;;;;;;;;27.31;44.44;99889.45;1743878;80;20479;-43
2021/08/07 01:38:37;;;;;;;;;;;;;;;27.30;44.48;99889.23;1753112;80;21739;-45
2021/08/07 01:41:03;;;;;;;;;;;;;;;27.30;44.54;99887.84;1755621;80;20931;-43
2021/08/07 01:43:30;;;;;;;;;;;;;;;27.31;44.56;99879.67;1757353;80;20326;-43
2021/08/07 01:45:56;;;;;;;;;;;;;;;27.31;44.58;99875.48;1754450;80;22065;-47
2021/08/07 01:48:25;;;;;;;;;;;;;;;27.32;44.64;99868.72;1756762;80;20161;-47
2021/08/07 01:51:00;;;;;;;;;;;;;;;27.30;44.67;99864.91;1751373;80;21209;-43
2021/08/07 01:53:27;;;;;;;;;;;;;;;27.30;44.71;99866.30;1742189;80;20227;-43
2021/08/07 01:56:18;;;;;;;;;;;;;;;27.31;44.75;99861.52;1744231;80;20190;-45
2021/08/07 01:58:46;;;;;;;;;;;;;;;27.31;44.79;99857.33;1750428;80;20143;-47
2021/08/07 02:01:15;;;;;;;;;;;;;;;27.31;44.81;99851.74;1746393;80;20213;-48
2021/08/07 02:03:41;;;;;;;;;;;;;;;27.30;44.86;99850.94;1754297;80;21769;-45
2021/08/07 02:06:07;;;;;;;;;;;;;;;27.31;44.90;99847.55;1749460;80;20434;-44
2021/08/07 02:08:35;;;;;;;;;;;;;;;27.31;44.94;99856.73;1747952;80;20151;-44
2021/08/07 02:11:03;;;;;;;;;;;;;;;27.31;44.98;99858.14;1755752;80;20284;-46
2021/08/07 02:13:30;;;;;;;;;;;;;;;27.31;45.01;99861.52;1749581;80;20226;-43
2021/08/07 02:15:56;;;;;;;;;;;;;;;27.29;45.05;99867.48;1749116;80;21803;-44
2021/08/07 02:18:23;;;;;;;;;;;;;;;27.30;45.08;99875.27;1749661;80;20208;-46
2021/08/07 02:20:51;;;;;;;;;;;;;;;27.30;45.12;99878.06;1747027;80;20599;-44
2021/08/07 02:23:17;;;;;;;;;;;;;;;27.32;45.14;99881.28;1746829;80;20199;-44
2021/08/07 02:25:45;;;;;;;;;;;;;;;27.30;45.18;99885.05;1751054;80;20201;-44
2021/08/07 02:28:11;;;;;;;;;;;;;;;27.31;45.21;99888.86;1744006;80;21191;-43
2021/08/07 02:30:39;;;;;;;;;;;;;;;27.31;45.26;99892.23;1721400;80;21641;-44
2021/08/07 02:33:05;;;;;;;;;;;;;;;27.30;45.28;99898.42;1746684;80;20217;-44
2021/08/07 02:35:31;;;;;;;;;;;;;;;27.30;45.33;99902.61;1725030;81;20610;-44
2021/08/07 02:37:57;;;;;;;;;;;;;;;27.31;45.34;99907.61;1755776;80;20159;-44
2021/08/07 02:40:23;;;;;;;;;;;;;;;27.30;45.35;99910.98;1754387;80;21164;-44
2021/08/07 02:42:49;;;;;;;;;;;;;;;27.31;45.40;99910.39;1752405;80;20167;-44
2021/08/07 02:45:15;;;;;;;;;;;;;;;27.31;45.43;99912.59;1750747;80;20179;-43
2021/08/07 02:47:41;;;;;;;;;;;;;;;27.31;45.44;99918.77;1758977;80;21693;-44
2021/08/07 02:50:08;;;;;;;;;;;;;;;27.31;45.47;99920.98;1712361;81;20198;-43
2021/08/07 02:52:34;;;;;;;;;;;;;;;27.31;45.49;99922.97;1753733;80;21317;-45
2021/08/07 02:55:03;;;;;;;;;;;;;;;27.30;45.53;99922.16;1755042;80;20262;-45
2021/08/07 02:57:30;;;;;;;;;;;;;;;27.30;45.54;99930.53;1751297;80;20474;-46
2021/08/07 02:59:57;;;;;;;;;;;;;;;27.30;45.57;99929.14;1757157;80;20799;-44
2021/08/07 03:02:23;;;;;;;;;;;;;;;27.30;45.58;99936.71;1753260;80;20182;-46
2021/08/07 03:04:49;;;;;;;;;;;;;;;27.30;45.62;99942.30;1747369;80;21270;-44
2021/08/07 03:07:15;;;;;;;;;;;;;;;27.30;45.63;99943.11;1749202;80;20214;-44
2021/08/07 03:09:40;;;;;;;;;;;;;;;27.30;45.66;99947.88;1746550;80;20751;-43
2021/08/07 03:12:06;;;;;;;;;;;;;;;27.29;45.69;99962.44;1724842;81;20466;-44
2021/08/07 03:14:33;;;;;;;;;;;;;;;27.31;45.72;99967.66;1741146;80;20670;-45
2021/08/07 03:16:59;;;;;;;;;;;;;;;27.30;45.75;99967.44;1727388;80;20402;-45
2021/08/07 03:19:24;;;;;;;;;;;;;;;27.26;45.77;99966.81;1738663;80;20276;-44
2021/08/07 03:21:50;;;;;;;;;;;;;;;27.31;45.78;99976.03;1739285;80;20223;-44
2021/08/07 03:24:16;;;;;;;;;;;;;;;27.30;45.82;99971.63;1740026;80;20235;-44
2021/08/07 03:26:42;;;;;;;;;;;;;;;27.30;45.83;99966.04;1737515;80;20195;-47
2021/08/07 03:29:08;;;;;;;;;;;;;;;27.30;45.85;99961.84;1735734;80;21089;-46
2021/08/07 03:31:35;;;;;;;;;;;;;;;27.28;45.89;99970.02;1739399;80;20491;-46
2021/08/07 03:34:01;;;;;;;;;;;;;;;27.29;45.90;99981.98;1738402;80;20285;-46
2021/08/07 03:36:28;;;;;;;;;;;;;;;27.29;45.94;99991.77;1739286;80;20145;-45
2021/08/07 03:38:54;;;;;;;;;;;;;;;27.30;45.96;100000.95;1743132;80;20247;-44
2021/08/07 03:41:20;;;;;;;;;;;;;;;27.28;45.98;100006.32;1744254;80;21234;-47
2021/08/07 03:43:46;;;;;;;;;;;;;;;27.29;45.99;100008.52;1737278;80;20420;-43
2021/08/07 03:46:12;;;;;;;;;;;;;;;27.30;46.02;100010.73;1740831;80;20442;-43
2021/08/07 03:48:38;;;;;;;;;;;;;;;27.28;46.04;100009.11;1741769;80;20865;-43
2021/08/07 03:51:04;;;;;;;;;;;;;;;27.30;46.04;100014.91;1740941;80;20210;-45
2021/08/07 03:53:30;;;;;;;;;;;;;;;27.30;46.08;100028.88;1745126;81;21123;-44
2021/08/07 03:55:56;;;;;;;;;;;;;;;27.29;46.09;100030.87;1745634;80;20199;-47
2021/08/07 03:58:22;;;;;;;;;;;;;;;27.30;46.11;100038.66;1738654;80;20345;-44
2021/08/07 04:00:48;;;;;;;;;;;;;;;27.30;46.13;100041.45;1741141;80;20417;-44
2021/08/07 04:03:14;;;;;;;;;;;;;;;27.28;46.15;100044.02;1739462;81;20516;-45
2021/08/07 04:05:40;;;;;;;;;;;;;;;27.30;46.16;100045.64;1744719;80;21791;-45
2021/08/07 04:08:09;;;;;;;;;;;;;;;27.29;46.09;100050.42;1739570;81;20193;-44
2021/08/07 04:10:35;;;;;;;;;;;;;;;27.26;45.87;100049.80;1738456;80;20133;-43
2021/08/07 04:13:01;;;;;;;;;;;;;;;27.24;45.75;100054.35;1737318;80;20210;-42
2021/08/07 04:15:27;;;;;;;;;;;;;;;27.23;45.67;100059.75;1736100;81;20439;-42
2021/08/07 04:17:53;;;;;;;;;;;;;;;27.22;45.55;100060.93;1749105;80;21301;-43
2021/08/07 04:20:19;;;;;;;;;;;;;;;27.20;45.42;100061.88;1753565;80;20543;-42
2021/08/07 04:22:45;;;;;;;;;;;;;;;27.19;45.44;100065.08;1748707;80;20198;-44
2021/08/07 04:25:11;;;;;;;;;;;;;;;27.18;45.33;100066.25;1748404;80;20197;-42
2021/08/07 04:27:38;;;;;;;;;;;;;;;27.17;45.23;100074.41;1750808;80;20207;-41
2021/08/07 04:30:05;;;;;;;;;;;;;;;27.15;45.17;100080.39;1753003;80;21093;-42
2021/08/07 04:32:31;;;;;;;;;;;;;;;27.15;45.14;100079.00;1749430;80;20429;-44
2021/08/07 04:34:57;;;;;;;;;;;;;;;27.15;45.08;100084.59;1750877;80;20246;-42
2021/08/07 04:37:23;;;;;;;;;;;;;;;27.14;44.97;100087.75;1751553;80;20770;-46
2021/08/07 04:39:49;;;;;;;;;;;;;;;27.11;44.87;100090.72;1753415;80;20778;-45
2021/08/07 04:42:15;;;;;;;;;;;;;;;27.11;44.85;100085.72;1749742;80;21188;-43
2021/08/07 04:44:41;;;;;;;;;;;;;;;27.11;44.83;100094.09;1751155;80;21678;-45
2021/08/07 04:47:07;;;;;;;;;;;;;;;27.12;44.83;100092.89;1749908;80;20264;-42
2021/08/07 04:49:33;;;;;;;;;;;;;;;27.13;44.91;100101.48;1753780;80;20206;-41
2021/08/07 04:51:59;;;;;;;;;;;;;;;27.14;44.95;100110.89;1752801;80;20228;-41
2021/08/07 04:54:25;;;;;;;;;;;;;;;27.15;45.00;100118.69;1753366;80;21396;-41
2021/08/07 04:56:50;;;;;;;;;;;;;;;27.15;45.03;100122.88;1745044;80;21129;-41
2021/08/07 04:59:16;;;;;;;;;;;;;;;27.16;45.06;100135.63;1748722;80;20305;-43
2021/08/07 05:01:42;;;;;;;;;;;;;;;27.16;45.08;100140.62;1754159;80;20164;-42
2021/08/07 05:04:10;;;;;;;;;;;;;;;27.17;45.12;100138.05;1745898;80;20197;-41
2021/08/07 05:06:36;;;;;;;;;;;;;;;27.16;45.12;100143.42;1753687;80;21108;-42
2021/08/07 05:09:03;;;;;;;;;;;;;;;27.17;45.14;100138.64;1751769;80;21594;-45
2021/08/07 05:11:28;;;;;;;;;;;;;;;27.17;45.15;100142.24;1754465;80;20151;-42
2021/08/07 05:13:55;;;;;;;;;;;;;;;27.17;45.17;100143.64;1753059;80;20148;-42
2021/08/07 05:16:21;;;;;;;;;;;;;;;27.17;45.20;100152.02;1750223;80;20148;-42
2021/08/07 05:18:47;;;;;;;;;;;;;;;27.17;45.21;100154.81;1752420;80;21130;-43
2021/08/07 05:21:12;;;;;;;;;;;;;;;27.18;45.22;100157.02;1757668;80;20227;-44
2021/08/07 05:23:38;;;;;;;;;;;;;;;27.17;45.24;100149.22;1752714;80;20181;-44
2021/08/07 05:26:04;;;;;;;;;;;;;;;27.18;45.25;100162.59;1751246;80;22187;-42
2021/08/07 05:28:30;;;;;;;;;;;;;;;27.18;45.24;100168.19;1750975;80;20195;-42
2021/08/07 05:30:56;;;;;;;;;;;;;;;27.19;45.26;100168.41;1753249;80;21223;-42
2021/08/07 05:33:22;;;;;;;;;;;;;;;27.18;45.28;100168.19;1751712;80;20735;-42
2021/08/07 05:35:48;;;;;;;;;;;;;;;27.18;45.30;100177.38;1749599;80;20270;-43
2021/08/07 05:38:15;;;;;;;;;;;;;;;27.19;45.30;100173.98;1752421;80;20685;-43
2021/08/07 05:40:41;;;;;;;;;;;;;;;27.18;45.32;100170.98;1753529;80;20607;-42
2021/08/07 05:43:07;;;;;;;;;;;;;;;27.19;45.34;100178.18;1749047;80;21126;-42
2021/08/07 05:45:33;;;;;;;;;;;;;;;27.19;45.36;100172.59;1753431;80;20454;-42
2021/08/07 05:47:59;;;;;;;;;;;;;;;27.18;45.37;100179.36;1749655;80;20216;-42
2021/08/07 05:50:25;;;;;;;;;;;;;;;27.18;45.37;100173.19;1753095;80;20671;-42
2021/08/07 05:52:51;;;;;;;;;;;;;;;27.18;45.39;100177.38;1753694;80;20218;-43
2021/08/07 05:55:17;;;;;;;;;;;;;;;27.19;45.42;100180.38;1751285;80;21071;-45
2021/08/07 05:57:43;;;;;;;;;;;;;;;27.18;45.41;100175.97;1752749;80;20286;-42
2021/08/07 06:00:09;;;;;;;;;;;;;;;27.19;45.41;100180.97;1753422;80;20232;-42
2021/08/07 06:02:35;;;;;;;;;;;;;;;27.19;45.45;100184.58;1748719;80;20193;-42
2021/08/07 06:05:01;;;;;;;;;;;;;;;27.18;45.46;100182.95;1752982;80;20791;-44
2021/08/07 06:07:27;;;;;;;;;;;;;;;27.20;45.46;100192.36;1746991;80;23095;-43
2021/08/07 06:09:53;;;;;;;;;;;;;;;27.20;45.49;100193.76;1747565;80;20204;-44
2021/08/07 06:12:19;;;;;;;;;;;;;;;27.19;45.49;100191.55;1749445;80;20216;-42
2021/08/07 06:14:46;;;;;;;;;;;;;;;27.19;45.50;100194.34;1752097;80;20202;-42
2021/08/07 06:17:11;;;;;;;;;;;;;;;27.19;45.51;100197.73;1744208;80;20385;-42
2021/08/07 06:19:37;;;;;;;;;;;;;;;27.19;45.50;100201.92;1754193;80;21056;-43
2021/08/07 06:22:03;;;;;;;;;;;;;;;27.19;45.53;100197.73;1748816;80;20525;-42
2021/08/07 06:24:30;;;;;;;;;;;;;;;27.19;45.56;100202.73;1746826;80;20205;-43
2021/08/07 06:26:56;;;;;;;;;;;;;;;27.19;45.57;100202.73;1751525;80;20574;-41
2021/08/07 06:29:22;;;;;;;;;;;;;;;27.20;45.57;100216.87;1757410;80;20702;-43
2021/08/07 06:31:48;;;;;;;;;;;;;;;27.19;45.62;100218.09;1743850;80;21107;-42
2021/08/07 06:34:14;;;;;;;;;;;;;;;27.18;45.60;100219.26;1753850;80;20257;-41
2021/08/07 06:36:40;;;;;;;;;;;;;;;27.16;45.50;100225.80;1757093;80;20274;-41
2021/08/07 06:39:06;;;;;;;;;;;;;;;27.09;45.37;100218.72;1754810;80;20241;-41
2021/08/07 06:41:32;;;;;;;;;;;;;;;27.05;45.25;100228.22;1745392;80;20617;-43
2021/08/07 06:43:58;;;;;;;;;;;;;;;26.99;45.12;100222.14;1750738;80;21142;-43
2021/08/07 06:46:24;;;;;;;;;;;;;;;26.93;45.03;100230.64;1747294;80;21577;-45
2021/08/07 06:48:49;;;;;;;;;;;;;;;26.88;44.89;100232.93;1752886;80;20238;-45
2021/08/07 06:51:15;;;;;;;;;;;;;;;26.81;44.76;100239.19;1747842;80;20207;-42
2021/08/07 06:53:41;;;;;;;;;;;;;;;26.75;44.59;100242.87;1756903;80;20289;-42
2021/08/07 06:56:07;;;;;;;;;;;;;;;26.70;44.44;100241.78;1750503;80;21741;-41
2021/08/07 06:58:33;;;;;;;;;;;;;;;26.65;44.26;100241.31;1746422;80;21678;-42
2021/08/07 07:00:59;;;;;;;;;;;;;;;26.61;44.12;100237.62;1750631;80;20215;-41
2021/08/07 07:03:25;;;;;;;;;;;;;;;26.56;43.97;100240.16;1747966;80;20191;-42
2021/08/07 07:05:51;;;;;;;;;;;;;;;26.51;43.78;100238.25;1750979;80;20190;-42
2021/08/07 07:08:18;;;;;;;;;;;;;;;26.47;43.66;100241.57;1754518;80;21233;-43
2021/08/07 07:10:44;;;;;;;;;;;;;;;26.44;43.50;100239.53;1748966;80;20160;-41
2021/08/07 07:13:11;;;;;;;;;;;;;;;26.40;43.35;100243.63;1742695;80;20266;-45
2021/08/07 07:15:37;;;;;;;;;;;;;;;26.35;43.19;100246.12;1756517;80;20893;-42
2021/08/07 07:18:03;;;;;;;;;;;;;;;26.32;43.03;100251.06;1740906;80;20186;-42
2021/08/07 07:20:28;;;;;;;;;;;;;;;26.29;42.89;100251.81;1706367;82;21600;-41
2021/08/07 07:22:54;;;;;;;;;;;;;;;26.27;42.75;100256.12;1714435;82;20198;-43
2021/08/07 07:25:20;;;;;;;;;;;;;;;26.23;42.62;100258.84;1721258;82;20201;-42
2021/08/07 07:27:47;;;;;;;;;;;;;;;26.22;42.49;100260.63;1729784;82;20459;-42
2021/08/07 07:30:13;;;;;;;;;;;;;;;26.18;42.35;100261.91;1722855;82;20464;-44
2021/08/07 07:32:39;;;;;;;;;;;;;;;26.15;42.20;100254.87;1713620;82;21855;-42
2021/08/07 07:35:06;;;;;;;;;;;;;;;26.14;42.07;100256.06;1709437;82;21666;-45
2021/08/07 07:37:32;;;;;;;;;;;;;;;26.10;41.93;100255.97;1708413;82;20230;-41
2021/08/07 07:39:58;;;;;;;;;;;;;;;26.07;41.80;100249.74;1718825;82;20248;-44
2021/08/07 07:42:24;;;;;;;;;;;;;;;26.04;41.67;100253.86;1717706;82;20170;-44
2021/08/07 07:44:51;;;;;;;;;;;;;;;26.02;41.57;100265.37;1731572;82;21093;-43
2021/08/07 07:47:16;;;;;;;;;;;;;;;26.01;41.45;100252.62;1725588;82;20123;-44
2021/08/07 07:49:42;;;;;;;;;;;;;;;25.99;41.34;100259.72;1731055;81;20249;-42
2021/08/07 07:52:08;;;;;;;;;;;;;;;25.97;41.25;100261.47;1718338;82;20505;-44
2021/08/07 07:54:34;;;;;;;;;;;;;;;25.95;41.14;100264.42;1722532;82;20279;-44
2021/08/07 07:57:02;;;;;;;;;;;;;;;25.93;41.03;100264.77;1716555;82;21131;-43
2021/08/07 07:59:28;;;;;;;;;;;;;;;25.90;40.92;100267.72;1724336;82;20474;-43
2021/08/07 08:01:54;;;;;;;;;;;;;;;25.89;40.80;100278.64;1716381;81;20144;-42
2021/08/07 08:04:19;;;;;;;;;;;;;;;25.87;40.70;100277.41;1724514;82;20176;-42
2021/08/07 08:06:45;;;;;;;;;;;;;;;25.85;40.61;100286.12;1711507;82;20760;-44
2021/08/07 08:09:11;;;;;;;;;;;;;;;25.83;40.49;100278.73;1716711;82;21187;-42
2021/08/07 08:11:37;;;;;;;;;;;;;;;25.80;40.38;100286.41;1705920;82;20361;-44
2021/08/07 08:14:03;;;;;;;;;;;;;;;25.80;40.29;100287.02;1720886;82;20510;-43
2021/08/07 08:16:31;;;;;;;;;;;;;;;25.77;40.17;100287.14;1714620;82;20283;-43
2021/08/07 08:18:57;;;;;;;;;;;;;;;25.76;40.08;100287.50;1707290;81;20328;-42
2021/08/07 08:21:23;;;;;;;;;;;;;;;25.74;39.96;100284.29;1698868;82;21451;-43
2021/08/07 08:23:49;;;;;;;;;;;;;;;25.73;39.88;100284.87;1701760;82;20199;-44
2021/08/07 08:26:15;;;;;;;;;;;;;;;25.71;39.79;100285.03;1704646;82;20260;-44
2021/08/07 08:28:41;;;;;;;;;;;;;;;25.69;39.69;100290.95;1703657;82;20378;-43
2021/08/07 08:31:07;;;;;;;;;;;;;;;25.69;39.61;100281.78;1706690;81;20762;-44
2021/08/07 08:33:33;;;;;;;;;;;;;;;25.66;39.52;100286.70;1701706;82;22098;-42
2021/08/07 08:36:01;;;;;;;;;;;;;;;25.65;39.45;100285.08;1704806;82;21033;-43
2021/08/07 08:38:27;;;;;;;;;;;;;;;25.64;39.36;100282.06;1704599;82;20204;-43
2021/08/07 08:40:58;;;;;;;;;;;;;;;25.64;39.36;100284.27;1702365;82;20506;-43
2021/08/07 08:43:24;;;;;;;;;;;;;;;25.70;39.41;100288.98;1701646;82;20171;-43
2021/08/07 08:45:50;;;;;;;;;;;;;;;25.74;39.44;100283.70;1706109;82;22626;-44
2021/08/07 08:48:16;;;;;;;;;;;;;;;25.79;39.47;100283.42;1702363;82;21577;-42
2021/08/07 08:50:43;;;;;;;;;;;;;;;25.84;39.49;100279.55;1706209;82;20236;-42
2021/08/07 08:53:09;;;;;;;;;;;;;;;25.89;39.56;100280.62;1670365;83;20211;-44
2021/08/07 08:55:37;;;;;;;;;;;;;;;25.93;39.58;100275.34;1676776;83;20278;-42
2021/08/07 08:58:03;;;;;;;;;;;;;;;25.98;39.62;100270.64;1706080;82;21339;-42
2021/08/07 09:00:29;;;;;;;;;;;;;;;26.01;39.65;100265.17;1702597;82;20121;-44
2021/08/07 09:02:55;;;;;;;;;;;;;;;26.05;39.70;100270.23;1701559;82;20192;-43
2021/08/07 09:05:21;;;;;;;;;;;;;;;26.10;39.73;100269.09;1701568;82;20259;-42
2021/08/07 09:07:48;;;;;;;;;;;;;;;26.13;39.75;100264.20;1704800;82;20409;-44
2021/08/07 09:10:14;;;;;;;;;;;;;;;26.16;39.79;100264.27;1705761;82;21061;-43
2021/08/07 09:12:43;;;;;;;;;;;;;;;26.19;39.83;100266.31;1704906;82;20321;-44
2021/08/07 09:15:26;;;;;;;;;;;;;;;26.23;39.86;100267.80;1701660;82;20260;-44
2021/08/07 09:18:19;;;;;;;;;;;;;;;26.26;39.87;100273.47;1707584;81;20787;-46
2021/08/07 09:20:46;;;;;;;;;;;;;;;26.29;39.91;100279.70;1751472;80;20188;-42
2021/08/07 09:23:13;;;;;;;;;;;;;;;26.31;39.94;100278.72;1757626;80;22125;-42
2021/08/07 09:25:45;;;;;;;;;;;;;;;26.34;39.95;100279.41;1748465;80;20236;-43
2021/08/07 09:28:11;;;;;;;;;;;;;;;26.37;39.99;100279.24;1747413;80;20193;-43
2021/08/07 09:30:39;;;;;;;;;;;;;;;26.39;40.04;100277.48;1751361;80;20211;-42
2021/08/07 09:33:12;;;;;;;;;;;;;;;26.41;40.07;100277.32;1750122;80;20210;-42
2021/08/07 09:35:39;;;;;;;;;;;;;;;26.42;40.08;100278.13;1752597;80;21448;-42
2021/08/07 09:38:20;;;;;;;;;;;;;;;26.45;40.12;100273.20;1748242;80;20142;-42
2021/08/07 09:40:58;;;;;;;;;;;;;;;26.46;40.15;100270.05;1752853;80;20199;-45
2021/08/07 09:43:26;;;;;;;;;;;;;;;26.49;40.18;100269.89;1745646;80;20689;-45
2021/08/07 09:46:01;;;;;;;;;;;;;;;26.51;40.19;100268.95;1753973;80;20512;-43
2021/08/07 09:48:38;;;;;;;;;;;;;;;26.52;40.22;100261.58;1749677;80;21066;-44
2021/08/07 09:51:25;;;;;;;;;;;;;;;26.54;40.28;100268.19;1748469;80;20653;-43
2021/08/07 09:54:05;;;;;;;;;;;;;;;26.57;40.29;100268.84;1733262;80;20204;-44
2021/08/07 09:56:52;;;;;;;;;;;;;;;26.58;40.37;100260.11;1753010;80;20187;-45
2021/08/07 09:59:21;;;;;;;;;;;;;;;26.60;40.40;100262.54;1750332;80;20246;-44
2021/08/07 10:01:47;;;;;;;;;;;;;;;26.62;40.50;100267.95;1749894;80;21231;-44
2021/08/07 10:04:14;;;;;;;;;;;;;;;26.63;40.58;100273.75;1751071;80;20439;-43
2021/08/07 10:06:41;;;;;;;;;;;;;;;26.65;40.67;100272.78;1750733;80;20258;-44
2021/08/07 10:09:09;;;;;;;;;;;;;;;26.67;40.76;100268.23;1751788;80;20205;-45
2021/08/07 10:11:35;;;;;;;;;;;;;;;26.69;40.85;100268.69;1757803;80;20208;-43
2021/08/07 10:14:01;;;;;;;;;;;;;;;26.72;40.92;100270.72;1757607;80;21381;-44
2021/08/07 10:16:28;;;;;;;;;;;;;;;26.74;41.00;100272.53;1753523;80;20168;-44
2021/08/07 10:18:54;;;;;;;;;;;;;;;26.76;41.08;100271.59;1750799;80;20574;-43
2021/08/07 10:21:20;;;;;;;;;;;;;;;26.77;41.14;100271.81;1746986;80;20209;-43
2021/08/07 10:23:47;;;;;;;;;;;;;;;26.80;41.20;100269.08;1749161;80;21004;-43
2021/08/07 10:26:16;;;;;;;;;;;;;;;26.83;41.29;100275.89;1745302;80;21124;-44
2021/08/07 10:28:44;;;;;;;;;;;;;;;26.86;41.36;100277.98;1751678;80;20365;-44
2021/08/07 10:31:13;;;;;;;;;;;;;;;26.88;41.42;100273.41;1747464;80;20180;-45
2021/08/07 10:33:43;;;;;;;;;;;;;;;26.91;41.50;100272.06;1753556;80;20484;-43
2021/08/07 10:36:07;;;;;;;;;;;;;;;26.92;41.57;100272.29;1747545;80;20259;-44
2021/08/07 10:38:37;;;;;;;;;;;;;;;26.95;41.66;100272.12;1751659;80;21345;-44
2021/08/07 10:41:04;;;;;;;;;;;;;;;26.97;41.76;100269.77;1755307;80;20203;-43
2021/08/07 10:43:33;;;;;;;;;;;;;;;26.99;41.87;100265.42;1752568;80;20148;-44
2021/08/07 10:45:59;;;;;;;;;;;;;;;27.00;42.04;100267.63;1749347;80;20527;-43
2021/08/07 10:48:42;;;;;;;;;;;;;;;26.99;42.13;100262.62;1751005;80;20192;-44
2021/08/07 10:51:29;;;;;;;;;;;;;;;26.96;42.18;100270.36;1745949;80;21143;-44
2021/08/07 10:54:03;;;;;;;;;;;;;;;26.92;42.21;100265.31;1749120;80;20778;-44
2021/08/07 10:56:32;;;;;;;;;;;;;;;26.89;42.20;100274.44;1745049;80;20207;-44
2021/08/07 10:59:14;;;;;;;;;;;;;;;26.86;42.17;100270.20;1746450;80;20566;-44
2021/08/07 11:01:42;;;;;;;;;;;;;;;26.81;42.14;100269.30;1753908;80;20187;-44
2021/08/07 11:04:11;;;;;;;;;;;;;;;26.78;42.10;100269.22;1751205;80;21337;-42
2021/08/07 11:06:43;;;;;;;;;;;;;;;26.74;42.06;100264.16;1746750;80;20118;-43
2021/08/07 11:09:32;;;;;;;;;;;;;;;26.71;42.00;100267.13;1753428;80;20448;-44
2021/08/07 11:12:08;;;;;;;;;;;;;;;26.67;41.93;100272.42;1746641;80;20198;-42
2021/08/07 11:14:50;;;;;;;;;;;;;;;26.65;41.85;100267.81;1744596;80;20213;-43
2021/08/07 11:17:19;;;;;;;;;;;;;;;26.61;41.79;100266.91;1748713;80;23293;-44
2021/08/07 11:20:03;;;;;;;;;;;;;;;26.58;41.70;100269.88;1748392;80;20163;-44
2021/08/07 11:22:40;;;;;;;;;;;;;;;26.56;41.61;100269.45;1744353;80;20183;-44
2021/08/07 11:25:14;;;;;;;;;;;;;;;26.53;41.51;100272.16;1750208;80;20923;-43
2021/08/07 11:30:21;;;;;;;;;;;;;;;26.45;41.35;100267.03;1752196;80;21133;-44
2021/08/07 11:33:01;;;;;;;;;;;;;;;26.43;41.25;100272.20;1750176;80;20819;-44
2021/08/07 11:35:42;;;;;;;;;;;;;;;26.40;41.18;100265.94;1745989;80;20170;-44
2021/08/07 11:38:15;;;;;;;;;;;;;;;26.38;41.09;100264.71;1752306;80;20331;-43
2021/08/07 11:40:46;;;;;;;;;;;;;;;26.34;41.01;100261.27;1745064;80;20181;-45
2021/08/07 11:43:19;;;;;;;;;;;;;;;26.32;40.91;100264.20;1746672;80;21968;-44
2021/08/07 11:45:45;;;;;;;;;;;;;;;26.29;40.84;100265.75;1751592;80;20194;-45
2021/08/07 11:48:29;;;;;;;;;;;;;;;26.28;40.75;100264.13;1742813;80;20206;-43
2021/08/07 11:50:56;;;;;;;;;;;;;;;26.27;40.69;100261.12;1743690;80;20700;-43
2021/08/07 11:53:23;;;;;;;;;;;;;;;26.26;40.60;100262.91;1752307;80;20225;-43
2021/08/07 11:56:09;;;;;;;;;;;;;;;26.25;40.51;100264.88;1751147;80;21037;-44
2021/08/07 11:58:52;;;;;;;;;;;;;;;26.24;40.44;100255.48;1749576;80;20215;-44
2021/08/07 12:01:18;;;;;;;;;;;;;;;26.23;40.37;100255.25;1751277;80;20444;-43
2021/08/07 12:03:47;;;;;;;;;;;;;;;26.22;40.29;100262.84;1747124;80;20243;-43
2021/08/07 12:06:15;;;;;;;;;;;;;;;26.21;40.20;100254.25;1746303;80;20145;-42
2021/08/07 12:08:41;;;;;;;;;;;;;;;26.20;40.14;100252.62;1754468;80;21988;-43
2021/08/07 12:11:11;;;;;;;;;;;;;;;26.20;40.09;100248.44;1749391;80;20157;-45
2021/08/07 12:13:39;;;;;;;;;;;;;;;26.19;40.04;100244.00;1748569;80;20183;-45
2021/08/07 12:16:07;;;;;;;;;;;;;;;26.19;39.99;100242.61;1750367;80;20201;-43
2021/08/07 12:18:53;;;;;;;;;;;;;;;26.19;39.92;100252.95;1749305;80;20198;-44
2021/08/07 12:21:26;;;;;;;;;;;;;;;26.18;39.87;100255.55;1745377;80;21171;-44
2021/08/07 12:23:54;;;;;;;;;;;;;;;26.18;39.78;100254.93;1731248;82;21640;-45
2021/08/07 12:26:21;;;;;;;;;;;;;;;26.20;39.74;100256.00;1732702;81;20495;-43
2021/08/07 12:28:47;;;;;;;;;;;;;;;26.25;39.75;100259.30;1725217;81;20749;-43
2021/08/07 12:31:13;;;;;;;;;;;;;;;26.30;39.75;100246.45;1694923;83;20140;-43
2021/08/07 12:33:41;;;;;;;;;;;;;;;26.37;39.79;100254.14;1701389;83;21126;-43
2021/08/07 12:36:13;;;;;;;;;;;;;;;26.44;39.81;100250.08;1746347;80;20189;-44
2021/08/07 12:38:41;;;;;;;;;;;;;;;26.51;39.85;100247.44;1748987;80;20170;-42
2021/08/07 12:41:07;;;;;;;;;;;;;;;26.58;39.91;100250.92;1750065;80;20175;-43
2021/08/07 12:43:33;;;;;;;;;;;;;;;26.64;39.96;100247.47;1750548;80;20203;-42
2021/08/07 12:46:07;;;;;;;;;;;;;;;26.70;40.02;100254.34;1755172;80;21232;-44
2021/08/07 12:48:49;;;;;;;;;;;;;;;26.76;40.07;100246.47;1750252;80;20218;-46